createdAt,value
2017-11-09T00:02:06.108Z,40.87
2017-11-09T00:04:46.199Z,39.43
2017-11-09T00:07:20.279Z,41.50
2017-11-09T00:09:54.383Z,42.30
2017-11-09T00:12:28.883Z,42.60
2017-11-09T00:15:03.285Z,39.80
2017-11-09T00:17:40.286Z,40.00
2017-11-09T00:20:14.315Z,39.40
2017-11-09T00:22:47.998Z,40.33
2017-11-09T00:25:21.634Z,40.93
2017-11-09T00:27:55.383Z,41.13
2017-11-09T00:30:29.429Z,42.00
2017-11-09T00:33:03.848Z,42.43
2017-11-09T00:35:37.802Z,40.07
2017-11-09T00:38:12.344Z,41.37
2017-11-09T00:40:47.210Z,40.60
2017-11-09T00:43:21.598Z,41.67
2017-11-09T00:45:55.850Z,40.67
2017-11-09T00:48:30.418Z,40.80
2017-11-09T00:51:04.791Z,41.97
2017-11-09T00:53:39.827Z,40.97
2017-11-09T00:56:14.948Z,39.53
2017-11-09T00:58:49.370Z,39.37
2017-11-09T01:01:23.788Z,40.23
2017-11-09T01:03:58.619Z,41.00
2017-11-09T01:06:32.695Z,41.23
2017-11-09T01:09:07.327Z,38.50
2017-11-09T01:11:42.198Z,40.53
2017-11-09T01:14:16.267Z,39.40
2017-11-09T01:16:50.955Z,39.10
2017-11-09T01:19:25.002Z,39.57
2017-11-09T01:21:58.831Z,41.93
2017-11-09T01:24:32.796Z,40.93
2017-11-09T01:27:06.685Z,41.23
2017-11-09T01:29:40.478Z,41.77
2017-11-09T01:32:14.219Z,38.77
2017-11-09T01:34:47.986Z,37.53
2017-11-09T01:37:23.530Z,38.83
2017-11-09T01:39:57.684Z,39.00
2017-11-09T01:42:31.536Z,38.60
2017-11-09T01:45:06.281Z,40.63
2017-11-09T01:47:40.629Z,38.87
2017-11-09T01:50:14.820Z,40.10
2017-11-09T01:52:48.726Z,39.70
2017-11-09T01:55:22.835Z,40.13
2017-11-09T01:57:57.667Z,38.73
2017-11-09T02:00:32.190Z,38.27
2017-11-09T02:03:05.790Z,55.37
2017-11-09T02:05:40.494Z,40.40
2017-11-09T02:08:15.409Z,40.80
2017-11-09T02:10:50.181Z,41.57
2017-11-09T02:13:23.967Z,40.60
2017-11-09T02:15:58.688Z,41.67
2017-11-09T02:18:32.606Z,38.33
2017-11-09T02:21:06.414Z,39.40
2017-11-09T02:23:40.199Z,39.53
2017-11-09T02:26:15.182Z,37.93
2017-11-09T02:28:49.671Z,40.57
2017-11-09T02:31:23.368Z,38.20
2017-11-09T02:33:58.205Z,41.13
2017-11-09T02:36:32.611Z,38.50
2017-11-09T02:39:07.454Z,38.23
2017-11-09T02:41:41.761Z,40.30
2017-11-09T02:44:16.602Z,38.67
2017-11-09T02:46:51.129Z,39.87
2017-11-09T02:49:25.643Z,38.37
2017-11-09T02:51:59.825Z,37.90
2017-11-09T02:54:34.371Z,41.23
2017-11-09T02:57:09.212Z,39.00
2017-11-09T02:59:43.941Z,40.40
2017-11-09T03:02:18.665Z,41.00
2017-11-09T03:04:54.006Z,40.90
2017-11-09T03:07:28.827Z,39.07
2017-11-09T03:10:03.967Z,42.27
2017-11-09T03:12:39.831Z,43.00
2017-11-09T03:15:14.144Z,40.97
2017-11-09T03:17:48.497Z,43.90
2017-11-09T03:20:22.366Z,42.37
2017-11-09T03:22:57.720Z,43.67
2017-11-09T03:25:32.119Z,43.97
2017-11-09T03:28:06.558Z,44.00
2017-11-09T03:30:41.235Z,43.10
2017-11-09T03:33:15.257Z,47.17
2017-11-09T03:35:49.158Z,44.00
2017-11-09T03:38:23.692Z,46.00
2017-11-09T03:40:57.915Z,48.50
2017-11-09T03:43:31.730Z,48.90
2017-11-09T03:46:05.941Z,47.30
2017-11-09T03:48:40.293Z,45.40
2017-11-09T03:51:14.007Z,47.00
2017-11-09T03:53:47.709Z,47.80
2017-11-09T03:56:21.583Z,48.77
2017-11-09T03:58:55.596Z,46.30
2017-11-09T04:01:29.258Z,45.67
2017-11-09T04:04:03.806Z,49.77
2017-11-09T04:06:37.750Z,47.70
2017-11-09T04:09:11.634Z,46.10
2017-11-09T04:11:46.282Z,47.00
2017-11-09T04:14:20.050Z,48.40
2017-11-09T04:16:55.678Z,47.60
2017-11-09T04:19:30.226Z,48.30
2017-11-09T04:22:04.963Z,47.80
2017-11-09T04:24:40.099Z,49.90
2017-11-09T04:27:14.618Z,49.17
2017-11-09T04:29:49.135Z,49.20
2017-11-09T04:32:23.862Z,49.57
2017-11-09T04:34:58.588Z,46.43
2017-11-09T04:37:33.218Z,49.00
2017-11-09T04:40:07.591Z,49.83
2017-11-09T04:42:41.432Z,50.70
2017-11-09T04:45:16.174Z,48.43
2017-11-09T04:47:50.695Z,46.27
2017-11-09T04:50:25.402Z,45.90
2017-11-09T04:53:00.539Z,45.67
2017-11-09T04:55:34.535Z,47.07
2017-11-09T04:58:09.176Z,49.83
2017-11-09T05:00:43.614Z,47.10
2017-11-09T05:03:18.735Z,46.10
2017-11-09T05:05:52.946Z,47.73
2017-11-09T05:08:27.817Z,48.77
2017-11-09T05:11:02.266Z,48.70
2017-11-09T05:13:35.996Z,46.90
2017-11-09T05:16:09.724Z,48.70
2017-11-09T05:18:44.043Z,48.57
2017-11-09T05:21:18.303Z,47.47
2017-11-09T05:23:52.368Z,50.37
2017-11-09T05:26:27.221Z,51.13
2017-11-09T05:29:02.335Z,50.57
2017-11-09T05:31:37.781Z,49.70
2017-11-09T05:34:13.494Z,51.07
2017-11-09T05:36:48.912Z,50.33
2017-11-09T05:39:24.929Z,47.40
2017-11-09T05:41:59.861Z,46.60
2017-11-09T05:44:34.811Z,53.90
2017-11-09T05:47:10.394Z,53.80
2017-11-09T05:49:45.681Z,50.60
2017-11-09T05:52:20.202Z,59.20
2017-11-09T05:54:55.024Z,49.27
2017-11-09T05:57:29.452Z,46.00
2017-11-09T06:00:03.208Z,48.60
2017-11-09T06:02:37.890Z,49.50
2017-11-09T06:05:12.566Z,52.27
2017-11-09T06:07:46.698Z,48.43
2017-11-09T06:10:21.140Z,49.07
2017-11-09T06:12:55.931Z,47.60
2017-11-09T06:15:30.301Z,49.40
2017-11-09T06:18:05.091Z,48.53
2017-11-09T06:20:40.447Z,45.60
2017-11-09T06:23:14.749Z,48.53
2017-11-09T06:25:49.211Z,48.33
2017-11-09T06:28:23.002Z,46.00
2017-11-09T06:30:57.614Z,43.37
2017-11-09T06:33:32.370Z,45.17
2017-11-09T06:36:07.696Z,46.73
2017-11-09T06:38:42.849Z,45.07
2017-11-09T06:41:17.542Z,47.27
2017-11-09T06:43:51.948Z,47.60
2017-11-09T06:46:26.202Z,45.30
2017-11-09T06:49:00.311Z,45.90
2017-11-09T06:51:34.424Z,47.57
2017-11-09T06:54:10.243Z,45.63
2017-11-09T06:56:45.462Z,44.40
2017-11-09T06:59:20.530Z,45.60
2017-11-09T07:01:54.553Z,46.00
2017-11-09T07:04:28.282Z,47.83
2017-11-09T07:07:02.267Z,47.10
2017-11-09T07:09:36.327Z,46.23
2017-11-09T07:12:11.105Z,48.17
2017-11-09T07:14:46.329Z,47.17
2017-11-09T07:17:20.543Z,45.60
2017-11-09T07:19:54.366Z,48.90
2017-11-09T07:22:28.567Z,46.23
2017-11-09T07:25:03.186Z,45.77
2017-11-09T07:27:37.924Z,45.77
2017-11-09T07:30:12.446Z,47.80
2017-11-09T07:32:47.071Z,43.43
2017-11-09T07:35:21.038Z,46.33
2017-11-09T07:37:54.926Z,45.63
2017-11-09T07:40:29.312Z,44.47
2017-11-09T07:43:04.177Z,46.47
2017-11-09T07:45:38.452Z,41.63
2017-11-09T07:48:12.368Z,46.73
2017-11-09T07:50:46.172Z,44.93
2017-11-09T07:53:20.435Z,45.20
2017-11-09T07:55:54.918Z,45.57
2017-11-09T07:58:29.748Z,42.57
2017-11-09T08:01:04.664Z,44.03
2017-11-09T08:03:39.094Z,45.40
2017-11-09T08:06:13.576Z,44.50
2017-11-09T08:08:48.980Z,43.10
2017-11-09T08:11:23.337Z,44.50
2017-11-09T08:13:57.425Z,43.60
2017-11-09T08:16:31.950Z,40.37
2017-11-09T08:19:06.124Z,43.40
2017-11-09T08:21:41.163Z,44.60
2017-11-09T08:24:17.676Z,44.47
2017-11-09T08:26:57.652Z,41.57
2017-11-09T08:29:34.999Z,41.37
2017-11-09T08:32:12.287Z,43.70
2017-11-09T08:34:46.515Z,43.10
2017-11-09T08:37:20.982Z,41.60
2017-11-09T08:39:55.147Z,41.90
2017-11-09T08:42:29.495Z,45.37
2017-11-09T08:45:03.328Z,47.60
2017-11-09T08:47:38.060Z,44.00
2017-11-09T08:50:12.475Z,44.53
2017-11-09T08:52:48.078Z,45.30
2017-11-09T08:55:23.465Z,47.50
2017-11-09T08:57:59.389Z,43.10
2017-11-09T09:00:33.636Z,42.53
2017-11-09T09:03:07.382Z,46.50
2017-11-09T09:05:42.474Z,44.60
2017-11-09T09:08:17.228Z,45.40
2017-11-09T09:10:51.503Z,44.00
2017-11-09T09:13:25.316Z,45.03
2017-11-09T09:15:59.316Z,48.03
2017-11-09T09:18:34.636Z,47.80
2017-11-09T09:24:19.664Z,54.73
2017-11-09T09:26:54.603Z,44.20
2017-11-09T09:29:30.078Z,44.33
2017-11-09T09:32:05.083Z,38.83
2017-11-09T09:34:45.852Z,41.47
2017-11-09T09:37:25.218Z,39.77
2017-11-09T09:40:02.684Z,38.20
2017-11-09T09:42:36.590Z,40.93
2017-11-09T09:45:10.830Z,39.57
2017-11-09T09:47:45.090Z,37.17
2017-11-09T09:50:18.751Z,37.83
2017-11-09T09:52:52.865Z,36.30
2017-11-09T09:55:27.871Z,34.13
2017-11-09T09:58:02.458Z,35.67
2017-11-09T10:00:36.122Z,33.60
2017-11-09T10:03:10.004Z,35.40
2017-11-09T10:05:43.706Z,33.83
2017-11-09T10:08:18.011Z,33.47
2017-11-09T10:10:53.086Z,32.67
2017-11-09T10:13:27.240Z,31.53
2017-11-09T10:16:02.516Z,34.90
2017-11-09T10:18:37.171Z,31.90
2017-11-09T10:21:12.447Z,29.10
2017-11-09T10:23:46.909Z,33.20
2017-11-09T10:26:21.324Z,31.00
2017-11-09T10:28:55.103Z,36.50
2017-11-09T10:31:28.758Z,36.47
2017-11-09T10:34:03.643Z,33.53
2017-11-09T10:36:37.435Z,33.53
2017-11-09T10:39:11.866Z,33.40
2017-11-09T10:41:47.334Z,35.73
2017-11-09T10:44:21.839Z,34.70
2017-11-09T10:46:56.554Z,34.00
2017-11-09T10:49:31.292Z,36.83
2017-11-09T10:52:05.358Z,36.63
2017-11-09T10:54:39.234Z,38.17
2017-11-09T10:57:14.604Z,39.13
2017-11-09T10:59:49.227Z,37.00
2017-11-09T11:02:24.714Z,40.90
2017-11-09T11:04:58.735Z,38.00
2017-11-09T11:07:34.000Z,42.23
2017-11-09T11:10:08.599Z,37.87
2017-11-09T11:12:42.586Z,41.80
2017-11-09T11:15:16.266Z,38.60
2017-11-09T11:17:50.327Z,38.43
2017-11-09T11:20:25.518Z,38.57
2017-11-09T11:22:59.881Z,37.17
2017-11-09T11:25:34.927Z,40.67
2017-11-09T11:28:10.364Z,40.43
2017-11-09T11:30:44.778Z,37.77
2017-11-09T11:33:18.867Z,40.93
2017-11-09T11:35:53.821Z,38.80
2017-11-09T11:38:28.935Z,40.73
2017-11-09T11:41:02.902Z,43.70
2017-11-09T11:43:37.324Z,40.33
2017-11-09T11:46:12.958Z,41.23
2017-11-09T11:48:48.978Z,42.40
2017-11-09T11:51:23.522Z,40.13
2017-11-09T11:53:59.554Z,42.27
2017-11-09T11:56:34.498Z,40.17
2017-11-09T11:59:09.637Z,39.90
2017-11-09T12:01:44.528Z,39.20
2017-11-09T12:04:25.895Z,37.97
2017-11-09T12:07:02.000Z,39.63
2017-11-09T12:09:36.775Z,37.53
2017-11-09T12:12:14.460Z,36.90
2017-11-09T12:14:49.350Z,39.90
2017-11-09T12:17:24.192Z,37.53
2017-11-09T12:19:58.902Z,39.80
2017-11-09T12:22:34.264Z,40.57
2017-11-09T12:25:09.354Z,39.37
2017-11-09T12:27:43.547Z,36.67
2017-11-09T12:30:18.750Z,38.67
2017-11-09T12:32:54.691Z,39.47
2017-11-09T12:35:29.123Z,38.20
2017-11-09T12:38:04.717Z,39.27
2017-11-09T12:40:39.291Z,38.90
2017-11-09T12:43:14.543Z,38.03
2017-11-09T12:45:49.242Z,39.17
2017-11-09T12:48:23.828Z,37.80
2017-11-09T12:50:58.824Z,39.40
2017-11-09T12:53:33.953Z,38.73
2017-11-09T12:56:08.676Z,36.40
2017-11-09T12:58:43.047Z,36.00
2017-11-09T13:01:17.490Z,34.67
2017-11-09T13:03:52.556Z,35.57
2017-11-09T13:06:26.772Z,36.83
2017-11-09T13:09:01.392Z,35.00
2017-11-09T13:11:36.773Z,37.30
2017-11-09T13:14:12.286Z,41.20
2017-11-09T13:16:47.062Z,35.17
2017-11-09T13:19:37.957Z,33.80
2017-11-09T13:22:13.337Z,33.70
2017-11-09T13:24:47.769Z,32.77
2017-11-09T13:27:22.297Z,36.43
2017-11-09T13:29:57.025Z,34.03
2017-11-09T13:32:31.834Z,33.03
2017-11-09T13:35:06.162Z,33.50
2017-11-09T13:37:40.592Z,34.10
2017-11-09T13:40:15.216Z,32.10
2017-11-09T13:42:49.649Z,34.97
2017-11-09T13:45:24.389Z,36.57
2017-11-09T13:47:58.440Z,33.40
2017-11-09T13:50:32.794Z,35.80
2017-11-09T13:53:08.042Z,34.40
2017-11-09T13:55:42.215Z,34.77
2017-11-09T13:58:17.512Z,32.13
2017-11-09T14:00:54.914Z,36.27
2017-11-09T14:03:29.014Z,34.13
2017-11-09T14:06:03.414Z,36.27
2017-11-09T14:08:39.024Z,35.70
2017-11-09T14:11:13.621Z,34.33
2017-11-09T14:13:48.011Z,32.87
2017-11-09T14:16:23.137Z,37.23
2017-11-09T14:18:57.183Z,34.17
2017-11-09T14:21:31.506Z,36.57
2017-11-09T14:24:06.600Z,35.67
2017-11-09T14:26:40.835Z,32.37
2017-11-09T14:29:14.996Z,31.63
2017-11-09T14:31:49.098Z,36.30
2017-11-09T14:34:23.502Z,33.77
2017-11-09T14:36:58.920Z,33.70
2017-11-09T14:39:33.527Z,39.87
2017-11-09T14:42:08.462Z,35.10
2017-11-09T14:44:44.505Z,36.07
2017-11-09T14:47:21.945Z,35.40
2017-11-09T14:49:57.160Z,34.77
2017-11-09T14:52:31.054Z,33.93
2017-11-09T14:55:05.168Z,33.27
2017-11-09T14:57:39.026Z,32.77
2017-11-09T15:00:14.846Z,36.10
2017-11-09T15:05:31.244Z,31.23
2017-11-09T15:08:05.767Z,30.87
2017-11-09T15:10:40.154Z,31.10
2017-11-09T15:13:16.042Z,30.73
2017-11-09T15:15:54.436Z,31.37
2017-11-09T15:21:12.395Z,30.70
2017-11-09T15:23:48.028Z,27.87
2017-11-09T15:26:23.324Z,35.83
2017-11-09T15:28:57.704Z,30.57
2017-11-09T15:31:32.346Z,29.70
2017-11-09T15:34:07.579Z,29.33
2017-11-09T15:36:42.022Z,30.40
2017-11-09T15:39:17.343Z,34.87
2017-11-09T15:41:51.346Z,94.40
2017-11-09T15:44:25.591Z,30.53
2017-11-09T15:47:01.462Z,30.50
2017-11-09T15:49:35.751Z,31.30
2017-11-09T15:52:09.444Z,30.03
2017-11-09T15:54:44.064Z,28.40
2017-11-09T15:57:18.586Z,31.90
2017-11-09T15:59:53.419Z,27.80
2017-11-09T16:02:29.376Z,29.80
2017-11-09T16:05:03.895Z,28.63
2017-11-09T16:07:38.907Z,33.70
2017-11-09T16:10:14.335Z,30.23
2017-11-09T16:12:48.989Z,31.23
2017-11-09T16:15:23.770Z,31.03
2017-11-09T16:17:58.829Z,40.67
2017-11-09T16:20:33.536Z,30.80
2017-11-09T16:23:07.699Z,33.63
2017-11-09T16:25:42.948Z,31.90
2017-11-09T16:28:17.380Z,34.53
2017-11-09T16:30:52.002Z,32.60
2017-11-09T16:33:27.279Z,31.17
2017-11-09T16:36:02.137Z,33.03
2017-11-09T16:38:36.258Z,35.83
2017-11-09T16:41:10.774Z,35.73
2017-11-09T16:43:45.000Z,33.43
2017-11-09T16:46:19.469Z,34.80
2017-11-09T16:48:53.330Z,33.07
2017-11-09T16:51:27.811Z,36.93
2017-11-09T16:54:02.818Z,35.40
2017-11-09T16:56:38.263Z,36.10
2017-11-09T16:59:13.553Z,35.43
2017-11-09T17:01:48.397Z,36.97
2017-11-09T17:04:23.216Z,35.40
2017-11-09T17:06:57.511Z,34.47
2017-11-09T17:09:32.062Z,36.30
2017-11-09T17:12:06.659Z,33.53
2017-11-09T17:14:40.266Z,36.60
2017-11-09T17:17:14.841Z,37.63
2017-11-09T17:19:48.840Z,33.43
2017-11-09T17:22:22.636Z,40.33
2017-11-09T17:24:57.537Z,36.40
2017-11-09T17:27:32.019Z,35.67
2017-11-09T17:30:06.558Z,36.10
2017-11-09T17:32:41.539Z,36.77
2017-11-09T17:35:18.390Z,36.97
2017-11-09T17:37:52.902Z,36.67
2017-11-09T17:40:27.364Z,37.60
2017-11-09T17:43:01.858Z,34.77
2017-11-09T17:45:35.873Z,37.20
2017-11-09T17:48:10.129Z,38.70
2017-11-09T17:50:44.687Z,37.33
2017-11-09T17:53:22.882Z,36.47
2017-11-09T17:55:56.730Z,36.93
2017-11-09T17:58:30.465Z,36.60
2017-11-09T18:01:05.101Z,35.90
2017-11-09T18:03:39.550Z,37.20
2017-11-09T18:06:13.215Z,37.37
2017-11-09T18:08:47.924Z,39.57
2017-11-09T18:11:23.690Z,38.23
2017-11-09T18:13:58.904Z,36.13
2017-11-09T18:16:32.728Z,38.77
2017-11-09T18:19:07.439Z,41.10
2017-11-09T18:21:41.681Z,40.53
2017-11-09T18:24:16.455Z,37.57
2017-11-09T18:26:51.203Z,37.70
2017-11-09T18:29:26.861Z,40.07
2017-11-09T18:32:00.932Z,41.10
2017-11-09T18:34:35.315Z,40.60
2017-11-09T18:37:10.523Z,40.30
2017-11-09T18:39:45.579Z,46.53
2017-11-09T18:42:20.129Z,39.20
2017-11-09T18:44:55.028Z,40.23
2017-11-09T18:47:30.818Z,40.40
2017-11-09T18:50:05.905Z,39.13
2017-11-09T18:52:40.324Z,38.80
2017-11-09T18:55:15.428Z,49.57
2017-11-09T18:57:49.387Z,41.23
2017-11-09T19:00:24.282Z,41.17
2017-11-09T19:02:58.413Z,40.47
2017-11-09T19:05:33.025Z,54.40
2017-11-09T19:08:08.168Z,40.17
2017-11-09T19:10:43.301Z,39.50
2017-11-09T19:13:18.044Z,42.77
2017-11-09T19:15:52.643Z,39.73
2017-11-09T19:18:27.858Z,38.80
2017-11-09T19:21:02.629Z,40.50
2017-11-09T19:23:42.539Z,44.20
2017-11-09T19:26:18.178Z,39.10
2017-11-09T19:28:53.680Z,44.90
2017-11-09T19:31:28.281Z,45.30
2017-11-09T19:34:02.414Z,45.10
2017-11-09T19:36:37.147Z,39.60
2017-11-09T19:39:11.495Z,40.20
2017-11-09T19:41:46.380Z,35.93
2017-11-09T19:44:20.709Z,40.20
2017-11-09T19:49:35.405Z,39.40
2017-11-09T19:52:10.156Z,37.70
2017-11-09T19:54:44.998Z,33.83
2017-11-09T19:57:19.987Z,37.50
2017-11-09T19:59:55.015Z,36.17
2017-11-09T20:02:29.146Z,36.13
2017-11-09T20:05:04.431Z,37.57
2017-11-09T20:07:40.121Z,38.30
2017-11-09T20:10:15.081Z,34.57
2017-11-09T20:12:51.735Z,35.53
2017-11-09T20:15:29.591Z,33.77
2017-11-09T20:18:07.995Z,35.57
2017-11-09T20:20:44.317Z,34.67
2017-11-09T20:23:21.353Z,35.87
2017-11-09T20:25:55.199Z,35.00
2017-11-09T20:28:29.799Z,34.43
2017-11-09T20:31:04.194Z,35.17
2017-11-09T20:33:40.776Z,31.43
2017-11-09T20:36:16.080Z,35.43
2017-11-09T20:38:54.632Z,32.57
2017-11-09T20:41:30.444Z,33.30
2017-11-09T20:44:04.734Z,33.70
2017-11-09T20:46:38.652Z,33.13
2017-11-09T20:49:12.770Z,31.90
2017-11-09T20:51:48.866Z,29.37
2017-11-09T20:54:24.482Z,30.43
2017-11-09T20:56:58.876Z,30.97
2017-11-09T20:59:33.855Z,30.77
2017-11-09T21:02:07.822Z,29.20
2017-11-09T21:04:42.004Z,31.70
2017-11-09T21:07:16.034Z,31.40
2017-11-09T21:09:50.979Z,30.07
2017-11-09T21:12:26.143Z,32.00
2017-11-09T21:15:01.032Z,35.60
2017-11-09T21:17:36.335Z,32.37
2017-11-09T21:20:10.436Z,28.80
2017-11-09T21:22:44.095Z,31.27
2017-11-09T21:25:17.853Z,35.03
2017-11-09T21:27:51.721Z,30.00
2017-11-09T21:30:25.567Z,31.23
2017-11-09T21:33:00.091Z,29.17
2017-11-09T21:35:33.834Z,30.00
2017-11-09T21:38:07.653Z,30.87
2017-11-09T21:40:41.433Z,29.80
2017-11-09T21:43:15.271Z,30.50
2017-11-09T21:45:50.577Z,31.53
2017-11-09T21:48:25.681Z,29.10
2017-11-09T21:50:59.731Z,30.37
2017-11-09T21:53:34.047Z,28.30
2017-11-09T21:56:08.860Z,30.80
2017-11-09T21:58:44.093Z,30.70
2017-11-09T22:01:17.925Z,31.10
2017-11-09T22:03:52.006Z,29.07
2017-11-09T22:06:25.692Z,29.23
2017-11-09T22:08:59.572Z,25.70
2017-11-09T22:11:33.580Z,28.03
2017-11-09T22:14:07.339Z,28.90
2017-11-09T22:16:41.330Z,27.27
2017-11-09T22:19:15.324Z,25.57
2017-11-09T22:21:49.142Z,25.27
2017-11-09T22:24:22.862Z,26.67
2017-11-09T22:26:56.893Z,25.23
2017-11-09T22:29:31.513Z,24.57
2017-11-09T22:32:05.499Z,26.10
2017-11-09T22:34:40.020Z,23.40
2017-11-09T22:37:14.955Z,23.40
2017-11-09T22:39:48.906Z,23.43
2017-11-09T22:42:23.442Z,23.07
2017-11-09T22:44:57.551Z,21.60
2017-11-09T22:47:32.258Z,22.37
2017-11-09T22:50:06.280Z,23.10
2017-11-09T22:52:39.993Z,21.83
2017-11-09T22:55:13.918Z,21.17
2017-11-09T22:57:47.664Z,21.57
2017-11-09T23:00:21.816Z,21.27
2017-11-09T23:02:56.289Z,19.97
2017-11-09T23:05:30.429Z,20.10
2017-11-09T23:08:04.205Z,18.57
2017-11-09T23:10:39.510Z,19.53
2017-11-09T23:13:14.037Z,18.20
2017-11-09T23:15:48.537Z,17.60
2017-11-09T23:18:22.445Z,18.70
2017-11-09T23:20:56.962Z,18.97
2017-11-09T23:23:31.487Z,19.17
2017-11-09T23:26:05.660Z,19.63
2017-11-09T23:28:40.182Z,20.13
2017-11-09T23:31:14.071Z,19.43
2017-11-09T23:33:47.736Z,21.33
2017-11-09T23:36:21.557Z,21.17
2017-11-09T23:38:55.173Z,20.17
2017-11-09T23:41:29.865Z,21.63
2017-11-09T23:44:03.974Z,22.77
2017-11-09T23:46:37.826Z,21.53
2017-11-09T23:49:11.661Z,20.43
2017-11-09T23:51:45.528Z,19.67
2017-11-09T23:54:19.438Z,19.63
2017-11-09T23:56:53.095Z,19.40
2017-11-09T23:59:28.427Z,20.10
